KCHO/CHO METAR and TAF weather

Enter ICAO airport designator
Station Type Date Time Source
KCHO METAR 2020/11/27 02:53 UTC NOAA

KCHO 270253Z 03005KT 10SM CLR 13/08 A3008 RMK AO2 SLP181 T01330083 53016


Station Type Date Time Source
KCHO Decoded METAR 2020/11/27 02:53 UTC NOAA

CHARLOTTESVILLE-ALBEMARLE, VA, United States (KCHO) 38-08N 078-27W 192M
Nov 26, 2020 - 09:53 PM EST / 2020.11.27 0253 UTC
Wind: from the NNE (030 degrees) at 6 MPH (5 KT):0
Visibility: 10 mile(s):0
Sky conditions: clear
Temperature: 55.9 F (13.3 C)
Dew Point: 46.9 F (8.3 C)
Relative Humidity: 71%
Pressure (altimeter): 30.08 in. Hg (1018 hPa)
Pressure tendency: 0.05 inches (1.6 hPa) higher than three hours ago
ob: KCHO 270253Z 03005KT 10SM CLR 13/08 A3008 RMK AO2 SLP181 T01330083 53016
cycle: 3

Station Type Date Time Source
KCHO TAF 2020/11/26 18:39 UTC NOAA

TAF KCHO 261736Z 2618/2718 18008KT P6SM SCT050
FM262000 25008KT P6SM FEW045 FEW250
FM262300 27004KT P6SM SKC
FM270400 00000KT P6SM FEW050 FEW250
FM270900 00000KT P6SM FEW045 SCT050

Example: see airport list